Time;durP1;ratioP1;P1;durP2;ratioP2;P2;SDS_P1;SDS_P2;PMS_P1;PMS_P2;Temp;Humidity;BMP_temperature;BMP_pressure;BME280_temperature;BME280_humidity;BME280_pressure;Samples;Min_cycle;Max_cycle;Signal;HPM_P1;HPM_P2
2022/08/25 00:01:39;;;;;;;43.40;5.07;;;38.50;56.50;;;;;;5048206;28;20058;-64
2022/08/25 00:04:11;;;;;;;50.15;4.47;;;38.50;56.50;;;;;;5036557;28;20460;-64
2022/08/25 00:06:40;;;;;;;49.38;4.47;;;38.60;56.40;;;;;;5051667;28;20641;-65
2022/08/25 00:09:07;;;;;;;44.17;5.25;;;38.70;56.20;;;;;;5049199;28;20065;-63
2022/08/25 00:11:35;;;;;;;37.58;4.20;;;38.80;56.00;;;;;;5046391;28;20062;-64
2022/08/25 00:14:11;;;;;;;44.92;5.30;;;38.80;55.80;;;;;;5048972;28;20067;-62
2022/08/25 00:16:38;;;;;;;43.08;4.22;;;38.90;55.80;;;;;;5046509;28;20070;-64
2022/08/25 00:19:09;;;;;;;44.42;4.25;;;38.60;56.00;;;;;;5045063;28;20109;-64
2022/08/25 00:21:37;;;;;;;61.47;5.03;;;38.60;56.10;;;;;;5049385;28;20146;-64
2022/08/25 00:24:04;;;;;;;45.53;5.60;;;38.60;56.00;;;;;;5029952;28;20543;-65
2022/08/25 00:26:31;;;;;;;40.22;4.38;;;38.60;55.80;;;;;;5062406;28;20135;-62
2022/08/25 00:28:57;;;;;;;54.78;5.00;;;38.70;56.00;;;;;;5048024;28;20393;-64
2022/08/25 00:31:25;;;;;;;41.97;5.80;;;38.50;56.10;;;;;;5060941;28;20152;-65
2022/08/25 00:33:52;;;;;;;34.58;3.22;;;38.40;56.90;;;;;;5045259;28;20133;-63
2022/08/25 00:36:19;;;;;;;47.28;4.25;;;37.90;53.10;;;;;;5062196;28;20062;-61
2022/08/25 00:38:48;;;;;;;49.38;3.72;;;37.50;53.00;;;;;;5045809;28;20072;-63
2022/08/25 00:41:20;;;;;;;43.10;3.58;;;37.20;52.40;;;;;;5060977;28;20102;-62
2022/08/25 00:43:48;;;;;;;47.60;4.55;;;37.20;53.20;;;;;;5048694;28;20072;-62
2022/08/25 00:46:20;;;;;;;37.20;2.55;;;37.10;52.20;;;;;;5049785;28;20063;-62
2022/08/25 00:49:08;;;;;;;32.45;4.38;;;36.70;51.90;;;;;;5050034;28;20077;-62
2022/08/25 00:51:41;;;;;;;28.35;3.38;;;36.50;52.30;;;;;;5048098;28;20081;-62
2022/08/25 00:54:14;;;;;;;34.00;2.40;;;36.40;52.60;;;;;;5067110;28;20596;-63
2022/08/25 00:56:42;;;;;;;26.92;2.30;;;36.30;52.80;;;;;;5047429;28;20067;-62
2022/08/25 00:59:08;;;;;;;26.58;2.47;;;36.20;52.40;;;;;;5049668;28;20094;-62
2022/08/25 01:01:35;;;;;;;25.20;2.28;;;36.10;52.50;;;;;;5050269;28;20068;-63
2022/08/25 01:04:01;;;;;;;18.52;2.10;;;35.90;52.90;;;;;;5066497;28;20083;-63
2022/08/25 01:06:32;;;;;;;22.80;2.58;;;36.00;52.90;;;;;;5050642;28;20070;-63
2022/08/25 01:08:59;;;;;;;18.88;2.25;;;36.00;53.00;;;;;;5050909;28;20075;-61
2022/08/25 01:11:26;;;;;;;30.42;2.65;;;36.00;52.80;;;;;;5050010;28;20172;-64
2022/08/25 01:13:55;;;;;;;18.45;2.55;;;35.90;52.80;;;;;;5048252;28;20071;-64
2022/08/25 01:16:23;;;;;;;17.80;2.58;;;35.90;52.70;;;;;;5051223;28;20102;-65
2022/08/25 01:18:56;;;;;;;23.13;2.17;;;35.90;52.70;;;;;;5049633;28;20130;-64
2022/08/25 01:21:26;;;;;;;13.50;1.88;;;35.80;52.90;;;;;;5049956;28;20093;-64
2022/08/25 01:23:54;;;;;;;13.02;1.90;;;35.70;52.90;;;;;;5049539;28;20078;-64
2022/08/25 01:26:32;;;;;;;13.52;1.70;;;35.60;52.80;;;;;;5051455;28;20092;-65
2022/08/25 01:31:46;;;;;;;7.40;1.35;;;35.60;52.70;;;;;;5051137;28;20107;-65
2022/08/25 01:34:14;;;;;;;11.15;1.67;;;35.50;52.80;;;;;;5049520;28;20089;-65
2022/08/25 01:36:42;;;;;;;8.20;1.40;;;35.50;53.00;;;;;;5049409;28;20077;-67
2022/08/25 01:39:10;;;;;;;12.23;1.60;;;35.50;52.90;;;;;;5048624;28;20728;-66
2022/08/25 01:41:47;;;;;;;3.90;1.30;;;35.50;53.30;;;;;;5049539;28;20171;-66
2022/08/25 01:44:14;;;;;;;10.23;1.63;;;35.50;53.40;;;;;;5065669;28;20095;-66
2022/08/25 01:46:41;;;;;;;9.52;1.88;;;35.50;53.70;;;;;;5049087;28;20073;-66
2022/08/25 01:49:09;;;;;;;10.18;1.60;;;35.60;53.60;;;;;;5049202;28;20076;-66
2022/08/25 01:51:45;;;;;;;12.18;2.10;;;35.60;54.00;;;;;;5048907;28;20089;-66
2022/08/25 01:54:12;;;;;;;11.25;1.73;;;35.60;53.90;;;;;;5049239;28;20126;-66
2022/08/25 01:56:38;;;;;;;13.95;1.92;;;35.50;53.70;;;;;;5048181;28;20088;-67
2022/08/25 01:59:05;;;;;;;9.00;1.63;;;35.50;54.00;;;;;;5049386;28;20096;-67
2022/08/25 02:01:31;;;;;;;11.48;1.80;;;35.40;54.00;;;;;;5050587;28;20545;-67
2022/08/25 02:03:58;;;;;;;11.32;1.80;;;35.40;54.70;;;;;;5049630;28;20081;-66
2022/08/25 02:06:31;;;;;;;14.50;1.83;;;35.40;58.10;;;;;;5048398;28;20096;-64
2022/08/25 02:09:09;;;;;;;14.63;1.92;;;35.40;56.20;;;;;;5048866;28;20111;-65
2022/08/25 02:11:38;;;;;;;17.40;2.80;;;35.40;54.30;;;;;;5049153;28;20087;-67
2022/08/25 02:14:05;;;;;;;13.07;2.40;;;35.40;54.10;;;;;;5054664;28;20073;-64
2022/08/25 02:16:34;;;;;;;9.65;2.67;;;35.40;55.90;;;;;;5048019;28;20131;-67
2022/08/25 02:19:01;;;;;;;10.63;2.53;;;35.30;57.60;;;;;;5049016;28;20166;-65
2022/08/25 02:21:28;;;;;;;15.85;3.03;;;35.20;56.80;;;;;;5068461;28;20542;-66
2022/08/25 02:23:55;;;;;;;15.20;2.92;;;35.20;55.50;;;;;;5050083;28;20076;-65
2022/08/25 02:26:22;;;;;;;12.45;2.20;;;35.20;56.00;;;;;;5049109;28;20171;-65
2022/08/25 02:28:50;;;;;;;20.63;2.60;;;35.20;55.00;;;;;;5050704;28;20076;-64
2022/08/25 02:31:20;;;;;;;16.08;2.30;;;35.20;55.50;;;;;;5053795;28;20090;-69
2022/08/25 02:33:46;;;;;;;12.45;2.40;;;35.20;55.20;;;;;;5048338;28;20426;-66
2022/08/25 02:36:14;;;;;;;10.23;2.30;;;35.20;56.00;;;;;;5047760;28;20073;-66
2022/08/25 02:38:41;;;;;;;18.80;2.47;;;35.10;55.40;;;;;;5046936;28;20071;-68
2022/08/25 02:41:15;;;;;;;34.13;3.08;;;35.10;55.60;;;;;;5049121;28;20144;-66
2022/08/25 02:43:43;;;;;;;10.63;2.47;;;35.10;55.70;;;;;;5048852;28;20075;-66
2022/08/25 02:46:10;;;;;;;15.07;3.33;;;35.10;56.20;;;;;;5030953;28;20551;-66
2022/08/25 02:48:38;;;;;;;10.98;2.50;;;35.10;56.60;;;;;;5047724;28;20549;-65
2022/08/25 02:51:05;;;;;;;8.60;2.00;;;35.10;55.60;;;;;;5047138;28;20095;-65
2022/08/25 02:53:33;;;;;;;10.90;2.42;;;35.10;55.30;;;;;;5049261;28;20123;-68
2022/08/25 02:56:00;;;;;;;9.48;2.60;;;35.10;56.10;;;;;;5048485;28;20074;-65
2022/08/25 02:58:27;;;;;;;17.40;2.65;;;35.10;56.00;;;;;;5045536;28;20150;-65
2022/08/25 03:00:55;;;;;;;13.23;2.65;;;35.10;56.40;;;;;;5048011;28;20179;-65
2022/08/25 03:03:22;;;;;;;20.98;3.03;;;35.00;56.10;;;;;;5047520;28;20084;-65
2022/08/25 03:05:48;;;;;;;24.48;3.33;;;35.00;55.50;;;;;;5048057;28;20075;-67
2022/08/25 03:08:15;;;;;;;21.33;3.08;;;35.00;55.30;;;;;;5047613;28;20094;-64
2022/08/25 03:10:42;;;;;;;19.20;3.55;;;35.00;55.40;;;;;;5048075;28;21578;-66
2022/08/25 03:13:08;;;;;;;32.55;4.03;;;35.00;56.10;;;;;;5054993;28;20174;-64
2022/08/25 03:15:36;;;;;;;22.98;3.20;;;35.00;56.70;;;;;;5047525;28;20147;-64
2022/08/25 03:18:04;;;;;;;27.00;3.83;;;35.00;56.80;;;;;;5047001;28;20079;-65
2022/08/25 03:20:32;;;;;;;28.92;3.28;;;34.90;57.10;;;;;;5047114;28;20067;-65
2022/08/25 03:22:58;;;;;;;33.40;4.38;;;34.90;56.30;;;;;;5046350;28;20507;-65
2022/08/25 03:28:13;;;;;;;28.08;2.97;;;34.90;56.60;;;;;;5050855;28;20083;-65
2022/08/25 03:30:41;;;;;;;26.50;3.20;;;34.90;56.30;;;;;;5062470;28;20557;-65
2022/08/25 03:33:08;;;;;;;8.48;1.90;;;34.80;56.00;;;;;;5062859;28;20072;-66
2022/08/25 03:35:37;;;;;;;7.65;1.60;;;34.80;55.80;;;;;;5049415;28;20074;-69
2022/08/25 03:38:04;;;;;;;15.57;2.00;;;34.60;56.70;;;;;;5047054;28;20134;-65
2022/08/25 03:40:31;;;;;;;13.88;1.50;;;34.50;56.40;;;;;;5045445;28;20123;-64
2022/08/25 03:43:02;;;;;;;10.57;1.83;;;34.50;56.80;;;;;;5049385;28;20435;-64
2022/08/25 03:45:31;;;;;;;10.02;1.35;;;34.40;57.00;;;;;;5048805;28;20175;-65
2022/08/25 03:47:58;;;;;;;14.77;1.33;;;34.40;57.20;;;;;;5047189;28;20550;-64
2022/08/25 03:50:24;;;;;;;14.25;1.70;;;34.30;57.60;;;;;;5046883;28;20639;-64
2022/08/25 03:52:55;;;;;;;13.38;1.73;;;34.30;57.90;;;;;;5048815;28;20088;-66
2022/08/25 03:55:24;;;;;;;16.08;2.15;;;34.20;58.90;;;;;;5048323;28;20075;-64
2022/08/25 03:57:52;;;;;;;13.88;1.88;;;34.20;59.50;;;;;;5046845;28;20088;-66
2022/08/25 04:00:20;;;;;;;15.75;2.03;;;34.20;60.10;;;;;;5047396;28;20079;-65
2022/08/25 04:02:47;;;;;;;12.73;2.03;;;34.00;60.70;;;;;;5048098;28;20090;-65
2022/08/25 04:05:13;;;;;;;9.57;1.90;;;34.00;61.20;;;;;;5047994;28;20082;-66
2022/08/25 04:07:40;;;;;;;20.75;2.40;;;34.00;61.00;;;;;;5047607;28;20084;-64
2022/08/25 04:10:09;;;;;;;19.42;2.22;;;34.00;62.90;;;;;;5064271;28;20067;-66
2022/08/25 04:12:36;;;;;;;16.75;2.63;;;33.90;62.30;;;;;;5048682;28;20096;-67
2022/08/25 04:15:05;;;;;;;25.45;2.72;;;33.80;63.00;;;;;;5047816;28;20403;-65
2022/08/25 04:17:31;;;;;;;30.08;3.22;;;33.90;62.90;;;;;;5050663;28;20087;-60
2022/08/25 04:19:58;;;;;;;22.90;3.05;;;33.90;63.40;;;;;;5051895;28;20072;-62
2022/08/25 04:22:25;;;;;;;31.38;2.88;;;34.00;63.20;;;;;;5050945;28;20129;-59
2022/08/25 04:24:51;;;;;;;34.28;3.83;;;34.00;62.80;;;;;;5052672;28;20159;-63
2022/08/25 04:27:17;;;;;;;34.90;3.67;;;34.00;62.70;;;;;;5051277;28;20081;-64
2022/08/25 04:29:44;;;;;;;29.92;3.47;;;34.00;63.30;;;;;;5050893;28;20099;-62
2022/08/25 04:32:10;;;;;;;29.88;3.58;;;34.00;63.60;;;;;;5052456;28;20088;-61
2022/08/25 04:34:37;;;;;;;42.92;5.15;;;33.90;63.70;;;;;;5050093;28;20130;-59
2022/08/25 04:37:05;;;;;;;36.20;4.40;;;33.80;63.40;;;;;;5052477;28;20076;-62
2022/08/25 04:39:32;;;;;;;27.98;3.25;;;33.80;64.10;;;;;;5050913;28;20146;-62
2022/08/25 04:41:59;;;;;;;32.67;4.15;;;33.90;64.40;;;;;;5052301;28;20083;-61
2022/08/25 04:44:26;;;;;;;44.80;3.75;;;33.90;63.40;;;;;;5051205;28;20138;-61
2022/08/25 04:46:53;;;;;;;36.15;3.42;;;33.90;63.00;;;;;;5052107;28;20072;-63
2022/08/25 04:49:19;;;;;;;27.08;3.65;;;33.90;63.60;;;;;;5065693;28;20083;-63
2022/08/25 04:51:46;;;;;;;37.20;3.85;;;33.90;63.60;;;;;;5051125;28;20095;-62
2022/08/25 04:54:20;;;;;;;39.58;4.15;;;33.90;63.20;;;;;;5051607;28;20072;-63
2022/08/25 04:56:49;;;;;;;54.05;5.63;;;33.90;63.20;;;;;;5053995;28;20501;-62
2022/08/25 04:59:16;;;;;;;45.30;6.88;;;33.90;63.50;;;;;;5058368;28;20488;-61
2022/08/25 05:01:45;;;;;;;48.00;7.30;;;33.90;63.60;;;;;;5049194;28;20163;-61
2022/08/25 05:04:14;;;;;;;63.25;6.80;;;34.00;63.60;;;;;;5052486;28;20137;-61
2022/08/25 05:06:41;;;;;;;56.63;6.50;;;34.00;63.90;;;;;;5052275;28;20368;-62
2022/08/25 05:09:08;;;;;;;36.40;5.28;;;33.90;64.20;;;;;;5050157;28;20076;-62
2022/08/25 05:11:34;;;;;;;41.40;5.78;;;33.90;65.60;;;;;;5050988;28;20463;-61
2022/08/25 05:14:02;;;;;;;36.97;4.70;;;33.90;65.30;;;;;;5056159;28;20068;-60
2022/08/25 05:16:28;;;;;;;27.42;4.38;;;33.90;65.60;;;;;;5051368;28;20084;-61
2022/08/25 05:18:56;;;;;;;31.77;4.95;;;33.90;66.00;;;;;;5050158;28;20080;-61
2022/08/25 05:21:27;;;;;;;35.15;5.28;;;33.80;66.30;;;;;;5049882;28;20108;-63
2022/08/25 05:23:56;;;;;;;24.73;5.40;;;33.90;66.60;;;;;;5049040;28;20549;-63
2022/08/25 05:26:24;;;;;;;30.70;5.80;;;33.90;67.00;;;;;;5049796;28;20213;-63
2022/08/25 05:28:52;;;;;;;22.75;4.90;;;33.80;67.50;;;;;;5049083;28;20478;-62
2022/08/25 05:31:20;;;;;;;26.23;5.50;;;33.80;68.00;;;;;;5050152;28;20560;-61
2022/08/25 05:33:47;;;;;;;23.23;4.78;;;33.80;68.50;;;;;;5049103;28;20088;-61
2022/08/25 05:36:14;;;;;;;19.48;4.88;;;33.70;69.20;;;;;;5065882;28;20075;-63
2022/08/25 05:38:42;;;;;;;33.40;5.78;;;33.70;69.50;;;;;;5065766;28;20125;-61
2022/08/25 05:41:15;;;;;;;16.27;4.80;;;33.70;70.40;;;;;;5049957;28;20120;-61
2022/08/25 05:43:43;;;;;;;18.95;4.78;;;33.70;71.20;;;;;;5048470;28;20107;-61
2022/08/25 05:46:10;;;;;;;20.95;5.47;;;33.60;71.50;;;;;;5048601;28;20092;-62
2022/08/25 05:48:38;;;;;;;22.23;4.78;;;33.60;71.90;;;;;;5066014;28;20133;-63
2022/08/25 05:51:06;;;;;;;28.92;6.53;;;33.60;72.30;;;;;;5048756;28;20565;-63
2022/08/25 05:53:33;;;;;;;19.58;4.60;;;33.50;72.40;;;;;;5049497;28;20069;-62
2022/08/25 05:56:00;;;;;;;14.55;4.75;;;33.50;72.70;;;;;;5065411;28;20175;-62
2022/08/25 05:58:28;;;;;;;25.45;5.18;;;33.60;73.10;;;;;;5050637;28;20109;-62
2022/08/25 06:00:57;;;;;;;14.55;4.55;;;33.50;73.20;;;;;;5047772;28;20080;-61
2022/08/25 06:03:23;;;;;;;15.23;4.75;;;33.50;73.40;;;;;;5057947;28;20064;-61
2022/08/25 06:05:50;;;;;;;19.67;5.07;;;33.40;73.80;;;;;;5065299;28;20629;-61
2022/08/25 06:08:16;;;;;;;16.00;4.45;;;33.40;74.70;;;;;;5048404;28;20095;-62
2022/08/25 06:10:42;;;;;;;22.00;5.55;;;33.30;74.60;;;;;;5050173;28;20119;-62
2022/08/25 06:13:09;;;;;;;19.88;5.18;;;33.40;74.80;;;;;;5071420;28;20533;-60
2022/08/25 06:15:35;;;;;;;22.95;5.50;;;33.40;74.90;;;;;;5048457;28;20080;-61
2022/08/25 06:18:02;;;;;;;22.05;4.55;;;33.40;75.10;;;;;;5048258;28;20080;-61
2022/08/25 06:20:30;;;;;;;19.17;5.25;;;33.40;75.10;;;;;;5064479;28;20092;-64
2022/08/25 06:22:58;;;;;;;18.25;4.72;;;33.40;75.30;;;;;;5048674;28;20111;-62
2022/08/25 06:25:31;;;;;;;16.52;5.18;;;33.30;75.60;;;;;;5047931;28;20083;-65
2022/08/25 06:27:58;;;;;;;20.40;5.75;;;33.30;75.80;;;;;;5054219;28;20095;-62
2022/08/25 06:30:24;;;;;;;16.48;5.53;;;33.30;76.40;;;;;;5049853;28;20537;-61
2022/08/25 06:32:51;;;;;;;23.42;5.82;;;33.20;76.20;;;;;;5065444;28;20108;-63
2022/08/25 06:35:19;;;;;;;22.30;7.32;;;33.20;76.70;;;;;;5049365;28;20072;-61
2022/08/25 06:37:49;;;;;;;18.40;5.40;;;33.20;76.70;;;;;;5048802;28;20162;-64
2022/08/25 06:40:16;;;;;;;20.90;4.90;;;33.10;76.80;;;;;;5048186;28;20566;-61
2022/08/25 06:42:47;;;;;;;16.17;5.30;;;33.10;77.10;;;;;;5050425;28;20072;-63
2022/08/25 06:45:13;;;;;;;16.13;4.70;;;33.00;77.80;;;;;;5064742;28;20093;-61
2022/08/25 06:47:39;;;;;;;18.88;5.00;;;33.00;78.10;;;;;;5064485;28;20079;-62
2022/08/25 06:50:06;;;;;;;22.00;5.13;;;32.90;78.40;;;;;;5048631;28;20480;-61
2022/08/25 06:52:33;;;;;;;14.95;4.22;;;33.00;78.60;;;;;;5064331;28;20084;-63
2022/08/25 06:54:59;;;;;;;20.45;4.55;;;32.90;78.90;;;;;;5047610;28;20076;-64
2022/08/25 06:57:26;;;;;;;25.90;5.07;;;32.90;79.30;;;;;;5048130;28;20130;-63
2022/08/25 06:59:52;;;;;;;16.50;4.45;;;32.80;79.50;;;;;;5049503;28;20068;-63
2022/08/25 07:02:19;;;;;;;17.92;4.53;;;32.80;79.80;;;;;;5046746;28;20072;-62
2022/08/25 07:04:45;;;;;;;22.63;4.55;;;32.80;80.40;;;;;;5047478;28;20477;-64
2022/08/25 07:07:12;;;;;;;19.52;4.03;;;32.70;80.90;;;;;;5049487;28;20073;-63
2022/08/25 07:09:38;;;;;;;19.88;4.78;;;32.70;81.60;;;;;;5064099;28;20075;-64
2022/08/25 07:12:05;;;;;;;21.90;4.70;;;32.70;82.20;;;;;;5048000;28;21595;-62
2022/08/25 07:14:32;;;;;;;17.60;4.63;;;32.70;82.70;;;;;;5050859;28;20534;-63
2022/08/25 07:16:58;;;;;;;18.42;5.05;;;32.70;83.30;;;;;;5048108;28;20072;-61
2022/08/25 07:19:24;;;;;;;24.75;4.88;;;32.60;83.90;;;;;;5064258;28;20068;-64
2022/08/25 07:21:52;;;;;;;15.88;4.43;;;32.60;84.60;;;;;;5063968;28;20521;-62
2022/08/25 07:24:20;;;;;;;18.02;4.45;;;32.60;85.10;;;;;;5048503;28;20096;-62
2022/08/25 07:26:47;;;;;;;29.95;4.82;;;32.60;85.60;;;;;;5047701;28;20073;-62
2022/08/25 07:29:17;;;;;;;18.90;4.88;;;32.60;86.00;;;;;;5047688;28;20496;-62
2022/08/25 07:31:43;;;;;;;20.13;4.32;;;32.60;86.30;;;;;;5048914;28;20154;-62
2022/08/25 07:36:56;;;;;;;18.65;4.38;;;32.60;87.30;;;;;;5049042;28;20072;-61
2022/08/25 07:39:23;;;;;;;23.98;5.53;;;32.50;87.60;;;;;;5047315;28;20095;-61
2022/08/25 07:41:50;;;;;;;24.50;5.22;;;32.50;88.10;;;;;;5046837;28;20167;-61
2022/08/25 07:44:17;;;;;;;23.70;5.20;;;32.50;88.50;;;;;;5050405;28;20167;-62
2022/08/25 07:46:43;;;;;;;12.52;4.45;;;32.50;88.70;;;;;;5048342;28;20092;-61
2022/08/25 07:49:10;;;;;;;21.27;4.93;;;32.50;89.00;;;;;;5047156;28;20527;-61
2022/08/25 07:51:37;;;;;;;18.88;5.15;;;32.50;89.30;;;;;;5048280;28;20084;-61
2022/08/25 07:54:05;;;;;;;20.27;4.93;;;32.50;89.40;;;;;;5051828;28;20167;-62
2022/08/25 07:56:31;;;;;;;24.85;4.95;;;32.50;89.50;;;;;;5068265;28;20155;-61
2022/08/25 07:58:57;;;;;;;23.40;4.57;;;32.50;89.60;;;;;;5067418;28;21141;-62
2022/08/25 08:01:25;;;;;;;17.00;4.60;;;32.50;89.80;;;;;;5053875;28;20067;-61
2022/08/25 08:03:52;;;;;;;15.18;4.60;;;32.50;90.10;;;;;;5049439;28;20076;-60
2022/08/25 08:06:21;;;;;;;16.63;4.50;;;32.40;90.40;;;;;;5051401;28;20080;-62
2022/08/25 08:08:49;;;;;;;17.55;4.38;;;32.30;90.80;;;;;;5051652;28;20068;-62
2022/08/25 08:11:16;;;;;;;17.08;4.50;;;32.30;91.30;;;;;;5067938;28;20613;-62
2022/08/25 08:13:43;;;;;;;16.52;4.32;;;32.20;91.80;;;;;;5057438;28;20145;-61
2022/08/25 08:16:11;;;;;;;23.75;5.40;;;32.10;92.30;;;;;;5065809;28;20088;-62
2022/08/25 08:18:38;;;;;;;17.60;4.85;;;32.20;92.80;;;;;;5052220;28;20088;-61
2022/08/25 08:21:04;;;;;;;20.67;5.22;;;32.20;92.90;;;;;;5050556;28;20065;-61
2022/08/25 08:23:30;;;;;;;18.65;6.05;;;32.10;93.30;;;;;;5050647;28;20072;-61
2022/08/25 08:25:57;;;;;;;21.10;6.30;;;32.00;93.20;;;;;;5050732;28;20080;-61
2022/08/25 08:28:26;;;;;;;24.98;7.25;;;31.90;93.00;;;;;;5050722;28;20068;-62
2022/08/25 08:30:53;;;;;;;19.98;6.63;;;31.90;93.10;;;;;;5051739;28;20080;-61
2022/08/25 08:33:20;;;;;;;42.92;8.80;;;31.90;93.10;;;;;;5051156;28;20530;-62
2022/08/25 08:35:46;;;;;;;21.58;8.20;;;31.90;93.20;;;;;;5066963;28;20257;-61
2022/08/25 08:38:14;;;;;;;23.00;9.15;;;31.90;93.30;;;;;;5067001;28;20064;-61
2022/08/25 08:44:08;;;;;;;30.67;9.68;;;31.80;93.50;;;;;;5051017;28;20083;-61
2022/08/25 08:47:01;;;;;;;30.60;11.32;;;31.80;93.60;;;;;;5065570;28;20153;-61
2022/08/25 08:50:00;;;;;;;29.58;11.48;;;31.80;93.10;;;;;;5049963;28;20072;-61
2022/08/25 08:52:45;;;;;;;33.88;10.80;;;31.80;93.00;;;;;;5048983;28;20112;-62
2022/08/25 08:55:33;;;;;;;27.25;9.45;;;31.80;92.90;;;;;;5049257;28;20088;-61
2022/08/25 08:58:04;;;;;;;29.80;8.52;;;31.80;92.90;;;;;;5032001;28;20434;-61
2022/08/25 09:00:36;;;;;;;24.80;6.20;;;31.80;92.50;;;;;;5049891;28;20080;-62
2022/08/25 09:03:30;;;;;;;23.42;5.40;;;31.80;92.20;;;;;;5047607;28;20077;-61
2022/08/25 09:06:01;;;;;;;20.00;5.07;;;31.80;92.10;;;;;;5047920;28;20081;-61
2022/08/25 09:08:27;;;;;;;19.58;4.60;;;31.80;91.90;;;;;;5053183;28;20151;-61
2022/08/25 09:11:21;;;;;;;16.08;4.47;;;31.80;91.80;;;;;;5032878;28;20083;-62
2022/08/25 09:14:17;;;;;;;15.98;4.22;;;31.80;91.60;;;;;;5032204;28;20069;-63
2022/08/25 09:17:04;;;;;;;13.70;3.67;;;31.80;91.70;;;;;;5032327;28;20194;-61
2022/08/25 09:19:46;;;;;;;14.32;4.25;;;31.80;90.80;;;;;;5053033;28;20109;-61
2022/08/25 09:22:38;;;;;;;17.80;3.25;;;31.80;90.40;;;;;;5031915;28;20167;-61
2022/08/25 09:25:04;;;;;;;19.05;3.75;;;31.80;90.00;;;;;;5048528;28;20239;-62
2022/08/25 09:27:48;;;;;;;12.70;3.40;;;31.80;89.70;;;;;;5049044;28;20080;-61
2022/08/25 09:30:18;;;;;;;14.73;3.10;;;31.80;87.50;;;;;;5045102;28;20162;-62
2022/08/25 09:32:58;;;;;;;12.48;2.47;;;31.80;87.20;;;;;;5052270;28;20084;-62
2022/08/25 09:35:29;;;;;;;15.00;3.30;;;31.80;85.50;;;;;;5052906;28;20080;-61
2022/08/25 09:38:01;;;;;;;11.77;2.53;;;31.80;85.20;;;;;;5048751;28;20503;-61
2022/08/25 09:40:34;;;;;;;13.35;2.58;;;31.80;85.30;;;;;;5049357;28;20165;-61
2022/08/25 09:43:04;;;;;;;13.52;2.13;;;31.70;83.10;;;;;;5050785;28;20116;-62
2022/08/25 09:45:43;;;;;;;15.77;2.45;;;31.70;82.00;;;;;;5049979;28;20114;-61
2022/08/25 09:48:28;;;;;;;19.20;2.28;;;31.70;82.00;;;;;;5050645;28;20445;-62
2022/08/25 09:51:30;;;;;;;25.27;2.92;;;31.70;80.80;;;;;;5049072;28;20077;-61
2022/08/25 09:54:16;;;;;;;19.63;2.10;;;31.60;80.80;;;;;;5047739;28;20092;-64
2022/08/25 09:56:52;;;;;;;17.20;2.60;;;31.60;80.20;;;;;;5049569;28;20188;-61
2022/08/25 09:59:22;;;;;;;19.73;2.20;;;31.50;79.70;;;;;;5050989;28;20075;-63
2022/08/25 10:01:53;;;;;;;24.58;2.40;;;31.50;79.40;;;;;;5049733;28;20453;-63
2022/08/25 10:04:37;;;;;;;17.40;2.38;;;31.50;79.20;;;;;;5047891;28;20143;-63
2022/08/25 10:07:20;;;;;;;24.05;2.78;;;31.50;79.30;;;;;;5062073;28;20076;-62
2022/08/25 10:10:17;;;;;;;21.75;2.70;;;31.40;79.60;;;;;;5054224;28;20068;-62
2022/08/25 10:12:48;;;;;;;20.17;2.30;;;31.40;78.70;;;;;;5029945;28;20196;-62
2022/08/25 10:15:26;;;;;;;21.30;2.88;;;31.40;79.10;;;;;;5009923;28;20112;-64
2022/08/25 10:17:53;;;;;;;25.15;2.38;;;31.60;79.40;;;;;;5009902;28;20100;-63
2022/08/25 10:20:23;;;;;;;32.83;3.28;;;31.80;78.40;;;;;;5027567;28;20252;-63
2022/08/25 10:22:50;;;;;;;29.70;3.15;;;32.10;78.10;;;;;;5010743;28;20077;-64
2022/08/25 10:25:26;;;;;;;25.85;2.97;;;32.20;76.40;;;;;;5027869;28;20073;-62
2022/08/25 10:28:11;;;;;;;33.58;3.25;;;32.30;76.30;;;;;;5028576;28;20540;-63
2022/08/25 10:31:15;;;;;;;28.02;2.88;;;32.20;75.10;;;;;;5027856;28;20091;-63
2022/08/25 10:33:50;;;;;;;29.10;3.13;;;32.30;75.00;;;;;;4983965;28;20518;-62
2022/08/25 10:36:52;;;;;;;28.75;3.28;;;32.30;74.60;;;;;;4981387;28;20080;-64
2022/08/25 10:39:43;;;;;;;27.55;4.07;;;32.30;75.70;;;;;;4963711;28;20088;-62
2022/08/25 10:42:12;;;;;;;24.92;2.72;;;32.30;74.90;;;;;;4966582;28;20096;-61
2022/08/25 10:48:12;;;;;;;25.27;2.42;;;32.10;74.30;;;;;;4980961;28;20146;-62
2022/08/25 10:51:02;;;;;;;21.27;2.20;;;32.10;74.70;;;;;;4983201;28;20108;-61
2022/08/25 10:53:41;;;;;;;16.13;2.30;;;32.20;74.70;;;;;;4988315;28;20168;-63
2022/08/25 10:56:12;;;;;;;19.75;2.75;;;32.30;73.90;;;;;;4985865;28;20172;-63
2022/08/25 10:59:16;;;;;;;17.75;2.28;;;32.20;73.40;;;;;;4986064;28;20073;-63
2022/08/25 11:02:00;;;;;;;16.38;2.30;;;32.30;73.50;;;;;;4983597;28;20513;-63
2022/08/25 11:04:27;;;;;;;12.75;2.40;;;32.20;74.40;;;;;;4985160;28;20080;-63
2022/08/25 11:07:24;;;;;;;14.32;2.20;;;32.30;73.60;;;;;;4978243;28;20119;-63
2022/08/25 11:09:54;;;;;;;15.63;1.88;;;32.20;73.80;;;;;;5035171;28;20554;-64
2022/08/25 11:12:32;;;;;;;17.83;2.50;;;32.20;73.90;;;;;;5067217;28;20110;-64
2022/08/25 11:15:19;;;;;;;13.32;2.30;;;32.10;74.00;;;;;;5048792;28;20076;-63
2022/08/25 11:17:54;;;;;;;15.25;4.28;;;32.20;73.90;;;;;;5047533;28;20076;-62
2022/08/25 11:20:27;;;;;;;17.00;5.20;;;32.10;74.10;;;;;;5047001;28;20538;-62
2022/08/25 11:23:15;;;;;;;20.38;6.75;;;32.10;75.10;;;;;;5048841;28;20170;-62
2022/08/25 11:25:44;;;;;;;19.95;6.28;;;32.00;75.40;;;;;;5045933;28;20164;-63
2022/08/25 11:28:25;;;;;;;27.77;7.43;;;32.00;75.40;;;;;;5047599;28;20151;-63
2022/08/25 11:30:55;;;;;;;23.83;7.18;;;32.00;75.90;;;;;;5047141;28;20083;-64
2022/08/25 11:33:24;;;;;;;25.83;6.95;;;32.10;75.10;;;;;;5048630;28;20072;-63
2022/08/25 11:36:01;;;;;;;21.85;4.70;;;32.00;74.90;;;;;;5048437;28;20522;-64
2022/08/25 11:38:37;;;;;;;16.10;3.78;;;32.00;75.30;;;;;;5063368;28;20091;-63
2022/08/25 11:41:40;;;;;;;13.77;3.50;;;32.00;75.00;;;;;;5046093;28;20518;-63
2022/08/25 11:44:13;;;;;;;10.88;2.28;;;32.00;75.00;;;;;;5047703;28;20064;-62
2022/08/25 11:47:16;;;;;;;11.90;2.78;;;31.90;75.40;;;;;;5046589;28;20100;-62
2022/08/25 11:49:56;;;;;;;7.20;1.65;;;31.90;76.50;;;;;;5046601;28;20074;-63
2022/08/25 11:52:32;;;;;;;13.90;2.20;;;31.80;76.50;;;;;;5047452;28;20130;-63
2022/08/25 11:55:26;;;;;;;10.57;2.20;;;31.80;76.60;;;;;;5047104;28;20530;-63
2022/08/25 11:58:27;;;;;;;13.98;2.33;;;31.80;75.90;;;;;;5062775;28;20079;-62
2022/08/25 12:00:55;;;;;;;10.25;2.60;;;31.80;75.80;;;;;;5047390;28;20607;-61
2022/08/25 12:03:34;;;;;;;10.43;2.58;;;31.70;76.00;;;;;;5029976;28;20084;-63
2022/08/25 12:06:20;;;;;;;8.75;2.10;;;31.60;76.00;;;;;;5046261;28;20503;-63
2022/08/25 12:09:02;;;;;;;7.40;1.70;;;31.60;76.50;;;;;;5045863;28;20083;-62
2022/08/25 12:11:41;;;;;;;9.63;1.90;;;31.50;76.10;;;;;;5046054;28;20107;-62
2022/08/25 12:14:23;;;;;;;10.30;1.70;;;31.50;76.60;;;;;;5047462;28;20151;-62
2022/08/25 12:16:55;;;;;;;10.10;1.58;;;31.50;77.00;;;;;;5047203;28;20538;-63
2022/08/25 12:19:34;;;;;;;8.70;1.92;;;31.60;76.90;;;;;;5046835;28;20080;-62
2022/08/25 12:22:03;;;;;;;9.07;1.58;;;31.50;77.60;;;;;;5047882;28;20487;-63
2022/08/25 12:24:42;;;;;;;13.57;2.00;;;31.50;77.20;;;;;;5047065;28;20073;-62
2022/08/25 12:27:37;;;;;;;15.23;2.00;;;31.40;77.60;;;;;;5047058;28;20125;-63
2022/08/25 12:30:30;;;;;;;6.93;1.70;;;31.40;77.70;;;;;;5003047;28;20092;-63
2022/08/25 12:33:05;;;;;;;8.80;1.50;;;31.40;77.80;;;;;;5048127;28;20171;-62
2022/08/25 12:35:39;;;;;;;8.82;1.48;;;31.40;77.60;;;;;;5046321;28;20507;-62
2022/08/25 12:38:08;;;;;;;6.18;1.38;;;31.30;77.80;;;;;;5065436;28;20515;-62
2022/08/25 12:40:43;;;;;;;6.38;1.40;;;31.30;77.70;;;;;;5065233;28;20143;-62
2022/08/25 12:43:41;;;;;;;6.03;0.90;;;31.30;79.20;;;;;;5049965;28;20091;-61
2022/08/25 12:46:26;;;;;;;5.13;1.10;;;31.20;79.30;;;;;;5050271;28;20446;-62
2022/08/25 12:49:02;;;;;;;7.75;1.60;;;31.10;79.40;;;;;;5053745;28;20122;-62
2022/08/25 12:52:05;;;;;;;6.80;1.50;;;31.00;79.30;;;;;;5050235;28;20569;-62
2022/08/25 12:54:48;;;;;;;6.30;1.50;;;31.10;79.30;;;;;;5052041;28;20173;-63
2022/08/25 12:57:42;;;;;;;9.43;1.33;;;31.10;79.10;;;;;;5063643;28;20151;-62
2022/08/25 13:00:46;;;;;;;11.98;1.60;;;31.00;79.10;;;;;;5049374;28;20450;-63
2022/08/25 13:03:40;;;;;;;6.05;1.45;;;31.10;79.50;;;;;;5022409;28;20497;-63
2022/08/25 13:06:15;;;;;;;10.90;1.67;;;31.10;80.00;;;;;;5050119;28;20092;-63
2022/08/25 13:09:00;;;;;;;9.03;1.83;;;31.00;79.90;;;;;;5058096;28;20073;-63
2022/08/25 13:11:50;;;;;;;6.45;1.80;;;30.90;79.80;;;;;;5050716;28;20546;-61
2022/08/25 13:14:35;;;;;;;8.32;1.60;;;30.80;80.50;;;;;;5049226;28;20092;-63
2022/08/25 13:17:02;;;;;;;6.55;1.60;;;30.80;80.10;;;;;;5050152;28;20118;-64
2022/08/25 13:19:29;;;;;;;10.23;2.35;;;30.90;80.50;;;;;;5048770;28;20076;-63